createdAt,value
2022-10-18T00:00:51.995Z,3.67
2022-10-18T00:03:53.720Z,3.55
2022-10-18T00:06:55.581Z,2.83
2022-10-18T00:09:57.405Z,4.25
2022-10-18T00:12:59.152Z,3.90
2022-10-18T00:16:02.890Z,3.60
2022-10-18T00:19:04.638Z,1.35
2022-10-18T00:22:06.285Z,3.40
2022-10-18T00:25:09.304Z,2.65
2022-10-18T00:28:10.978Z,3.45
2022-10-18T00:31:16.041Z,2.15
2022-10-18T00:34:17.796Z,3.90
2022-10-18T00:37:19.512Z,3.60
2022-10-18T00:40:21.424Z,4.40
2022-10-18T00:43:23.111Z,3.65
2022-10-18T00:46:27.637Z,3.92
2022-10-18T00:49:35.841Z,2.75
2022-10-18T00:52:47.118Z,4.03
2022-10-18T00:55:49.215Z,4.22
2022-10-18T00:58:51.921Z,3.53
2022-10-18T01:01:53.779Z,2.38
2022-10-18T01:04:55.667Z,3.67
2022-10-18T01:08:06.563Z,3.58
2022-10-18T01:11:31.304Z,3.55
2022-10-18T01:14:51.411Z,3.92
2022-10-18T01:18:20.428Z,2.15
2022-10-18T01:21:37.969Z,4.10
2022-10-18T01:25:24.423Z,3.95
2022-10-18T01:28:50.854Z,3.15
2022-10-18T01:32:02.737Z,1.92
2022-10-18T01:35:18.977Z,3.42
2022-10-18T01:38:23.442Z,3.97
2022-10-18T01:41:27.112Z,3.60
2022-10-18T01:44:33.039Z,3.83
2022-10-18T01:47:36.285Z,3.22
2022-10-18T01:50:38.015Z,3.42
2022-10-18T01:53:39.752Z,3.25
2022-10-18T01:56:58.705Z,3.67
2022-10-18T02:00:14.846Z,1.95
2022-10-18T02:03:25.916Z,2.30
2022-10-18T02:06:31.857Z,2.88
2022-10-18T02:09:50.488Z,3.85
2022-10-18T02:12:54.917Z,3.90
2022-10-18T02:16:01.496Z,3.13
2022-10-18T02:19:14.211Z,3.05
2022-10-18T02:22:17.345Z,3.22
2022-10-18T02:25:24.284Z,3.63
2022-10-18T02:28:29.283Z,3.72
2022-10-18T02:31:49.563Z,3.78
2022-10-18T02:35:01.341Z,3.38
2022-10-18T02:38:05.056Z,2.90
2022-10-18T02:41:06.795Z,3.70
2022-10-18T02:44:09.457Z,3.45
2022-10-18T02:47:11.819Z,3.70
2022-10-18T02:50:14.349Z,3.22
2022-10-18T02:53:16.055Z,3.85
2022-10-18T02:56:17.855Z,4.20
2022-10-18T02:59:19.551Z,2.65
2022-10-18T03:02:21.295Z,3.00
2022-10-18T03:05:23.042Z,3.00
2022-10-18T03:08:24.960Z,3.20
2022-10-18T03:11:26.667Z,3.90
2022-10-18T03:14:28.379Z,3.63
2022-10-18T03:17:30.282Z,3.33
2022-10-18T03:20:33.279Z,4.03
2022-10-18T03:23:35.390Z,3.83
2022-10-18T03:26:37.203Z,3.00
2022-10-18T03:29:38.926Z,3.78
2022-10-18T03:32:40.696Z,4.45
2022-10-18T03:35:42.371Z,4.45
2022-10-18T03:38:44.161Z,4.90
2022-10-18T03:41:45.941Z,4.95
2022-10-18T03:44:47.697Z,4.88
2022-10-18T03:47:49.453Z,4.88
2022-10-18T03:50:51.215Z,4.53
2022-10-18T03:53:52.949Z,6.00
2022-10-18T03:56:54.652Z,5.47
2022-10-18T03:59:56.377Z,4.78
2022-10-18T04:02:58.139Z,5.70
2022-10-18T04:06:00.775Z,5.28
2022-10-18T04:09:04.246Z,4.80
2022-10-18T04:12:08.413Z,4.95
2022-10-18T04:15:10.619Z,6.00
2022-10-18T04:18:12.368Z,5.30
2022-10-18T04:21:14.193Z,6.82
2022-10-18T04:24:18.939Z,5.38
2022-10-18T04:27:20.634Z,5.80
2022-10-18T04:30:22.478Z,5.88
2022-10-18T04:33:24.194Z,6.40
2022-10-18T04:36:26.115Z,5.63
2022-10-18T04:39:27.909Z,6.15
2022-10-18T04:42:30.071Z,6.45
2022-10-18T04:45:31.812Z,5.55
2022-10-18T04:48:33.683Z,6.10
2022-10-18T04:51:35.385Z,6.22
2022-10-18T04:54:37.578Z,6.38
2022-10-18T04:57:39.308Z,6.70
2022-10-18T05:00:41.195Z,7.55
2022-10-18T05:03:42.990Z,6.32
2022-10-18T05:06:44.795Z,5.35
2022-10-18T05:09:46.559Z,5.88
2022-10-18T05:12:48.416Z,5.22
2022-10-18T05:15:50.175Z,5.30
2022-10-18T05:18:51.920Z,5.07
2022-10-18T05:21:53.661Z,5.18
2022-10-18T05:24:55.405Z,5.80
2022-10-18T05:27:57.211Z,5.55
2022-10-18T05:31:03.787Z,4.65
2022-10-18T05:37:07.346Z,5.18
2022-10-18T05:40:09.737Z,5.53
2022-10-18T05:43:11.618Z,5.85
2022-10-18T05:46:15.547Z,5.47
2022-10-18T05:49:17.680Z,5.53
2022-10-18T05:52:19.600Z,4.05
2022-10-18T05:55:21.332Z,5.47
2022-10-18T05:58:23.079Z,4.35
2022-10-18T06:01:24.785Z,5.40
2022-10-18T06:04:26.493Z,2.83
2022-10-18T06:07:28.258Z,4.60
2022-10-18T06:10:29.984Z,4.82
2022-10-18T06:13:32.566Z,5.50
2022-10-18T06:19:37.240Z,5.25
2022-10-18T06:22:38.958Z,5.75
2022-10-18T06:25:40.792Z,4.55
2022-10-18T06:28:42.662Z,4.82
2022-10-18T06:31:44.363Z,4.97
2022-10-18T06:34:46.102Z,3.85
2022-10-18T06:37:47.889Z,5.05
2022-10-18T06:40:50.001Z,5.15
2022-10-18T06:43:56.828Z,5.00
2022-10-18T06:46:58.578Z,5.15
2022-10-18T06:50:00.542Z,5.22
2022-10-18T06:53:04.154Z,5.47
2022-10-18T06:56:13.615Z,4.55
2022-10-18T06:59:15.668Z,4.93
2022-10-18T07:02:17.886Z,4.53
2022-10-18T07:05:19.654Z,5.05
2022-10-18T07:08:21.476Z,5.22
2022-10-18T07:11:26.532Z,5.05
2022-10-18T07:14:29.233Z,5.13
2022-10-18T07:17:31.425Z,4.75
2022-10-18T07:20:33.817Z,5.65
2022-10-18T07:23:37.899Z,6.22
2022-10-18T07:26:39.642Z,5.43
2022-10-18T07:29:41.554Z,6.10
2022-10-18T07:32:43.300Z,5.68
2022-10-18T07:35:45.042Z,5.82
2022-10-18T07:38:46.962Z,5.75
2022-10-18T07:41:49.148Z,5.82
2022-10-18T07:44:50.989Z,6.53
2022-10-18T07:47:56.701Z,7.15
2022-10-18T07:51:00.715Z,6.13
2022-10-18T07:54:03.102Z,6.82
2022-10-18T07:57:05.251Z,7.13
2022-10-18T08:00:09.075Z,6.30
2022-10-18T08:03:13.304Z,7.45
2022-10-18T08:06:18.034Z,6.65
2022-10-18T08:09:19.762Z,6.10
2022-10-18T08:12:23.259Z,6.45
2022-10-18T08:15:26.345Z,7.03
2022-10-18T08:18:28.318Z,7.65
2022-10-18T08:21:30.095Z,6.38
2022-10-18T08:24:32.280Z,7.13
2022-10-18T08:27:34.301Z,7.00
2022-10-18T08:30:36.365Z,6.22
2022-10-18T08:33:39.697Z,6.70
2022-10-18T08:36:41.515Z,7.68
2022-10-18T08:39:43.518Z,7.32
2022-10-18T08:42:57.517Z,7.20
2022-10-18T08:45:59.744Z,5.22
2022-10-18T08:49:03.599Z,6.78
2022-10-18T08:52:20.892Z,7.07
2022-10-18T08:55:30.965Z,7.18
2022-10-18T08:58:34.580Z,6.82
2022-10-18T09:01:36.465Z,6.88
2022-10-18T09:05:03.479Z,6.82
2022-10-18T09:08:28.422Z,6.10
2022-10-18T09:12:01.880Z,6.50
2022-10-18T09:15:07.538Z,4.97
2022-10-18T09:18:19.608Z,4.70
2022-10-18T09:21:30.639Z,5.53
2022-10-18T09:25:06.361Z,5.95
2022-10-18T09:28:13.939Z,5.70
2022-10-18T09:31:24.659Z,5.28
2022-10-18T09:34:37.329Z,5.80
2022-10-18T09:37:39.900Z,6.40
2022-10-18T09:41:05.465Z,5.45
2022-10-18T09:44:22.943Z,5.38
2022-10-18T09:50:42.477Z,5.45
2022-10-18T09:54:03.666Z,5.85
2022-10-18T09:57:11.901Z,5.60
2022-10-18T10:00:25.899Z,6.05
2022-10-18T10:03:27.594Z,5.82
2022-10-18T10:06:38.711Z,6.85
2022-10-18T10:09:46.643Z,4.45
2022-10-18T10:13:02.040Z,6.40
2022-10-18T10:16:04.005Z,6.30
2022-10-18T10:19:05.763Z,5.90
2022-10-18T10:22:12.023Z,5.70
2022-10-18T10:25:30.833Z,6.30
2022-10-18T10:28:43.651Z,5.60
2022-10-18T10:31:45.433Z,5.72
2022-10-18T10:34:47.202Z,6.43
2022-10-18T10:37:53.560Z,5.82
2022-10-18T10:43:57.733Z,5.40
2022-10-18T10:46:59.941Z,5.43
2022-10-18T10:50:11.523Z,5.10
2022-10-18T10:53:28.264Z,6.15
2022-10-18T10:56:33.725Z,5.60
2022-10-18T10:59:51.265Z,5.23
2022-10-18T11:03:28.005Z,6.13
2022-10-18T11:06:37.548Z,5.97
2022-10-18T11:09:44.059Z,7.00
2022-10-18T11:13:10.008Z,6.88
2022-10-18T11:16:23.389Z,5.57
2022-10-18T11:19:40.332Z,5.78
2022-10-18T11:22:50.402Z,6.10
2022-10-18T11:26:10.935Z,5.80
2022-10-18T11:29:22.467Z,6.30
2022-10-18T11:32:53.387Z,6.40
2022-10-18T11:36:03.642Z,6.15
2022-10-18T11:39:19.331Z,6.10
2022-10-18T11:42:54.313Z,6.25
2022-10-18T11:46:22.135Z,5.82
2022-10-18T11:50:01.077Z,6.45
2022-10-18T11:53:05.824Z,7.35
2022-10-18T11:56:10.263Z,7.43
2022-10-18T11:59:49.470Z,6.57
2022-10-18T12:03:12.702Z,7.13
2022-10-18T12:06:19.431Z,6.43
2022-10-18T12:09:28.615Z,6.82
2022-10-18T12:12:36.027Z,6.57
2022-10-18T12:15:40.676Z,7.22
2022-10-18T12:22:18.348Z,6.97
2022-10-18T12:25:20.389Z,6.68
2022-10-18T12:28:35.793Z,7.22
2022-10-18T12:31:44.472Z,8.13
2022-10-18T12:34:54.582Z,6.65
2022-10-18T12:38:09.447Z,6.43
2022-10-18T12:41:21.878Z,6.80
2022-10-18T12:44:31.157Z,6.75
2022-10-18T12:47:33.593Z,6.35
2022-10-18T12:50:44.037Z,5.65
2022-10-18T12:53:55.051Z,6.70
2022-10-18T12:56:58.562Z,5.45
2022-10-18T13:00:00.331Z,6.53
2022-10-18T13:03:17.781Z,6.40
2022-10-18T13:06:19.936Z,5.80
2022-10-18T13:09:21.760Z,6.35
2022-10-18T13:12:23.406Z,7.45
2022-10-18T13:15:44.448Z,6.38
2022-10-18T13:18:48.930Z,6.68
2022-10-18T13:22:24.927Z,6.25
2022-10-18T13:25:54.390Z,6.93
2022-10-18T13:29:34.722Z,7.72
2022-10-18T13:32:53.613Z,7.00
2022-10-18T13:36:04.158Z,5.70
2022-10-18T13:39:06.205Z,6.25
2022-10-18T13:42:31.088Z,6.75
2022-10-18T13:45:33.077Z,6.13
2022-10-18T13:48:35.048Z,6.05
2022-10-18T13:51:54.975Z,6.00
2022-10-18T13:55:14.674Z,5.85
2022-10-18T13:58:34.983Z,5.07
2022-10-18T14:01:46.546Z,5.78
2022-10-18T14:05:23.868Z,5.70
2022-10-18T14:08:36.262Z,6.35
2022-10-18T14:12:25.626Z,6.10
2022-10-18T14:15:33.858Z,5.95
2022-10-18T14:18:40.848Z,6.47
2022-10-18T14:21:51.119Z,6.78
2022-10-18T14:24:58.012Z,5.97
2022-10-18T14:28:12.493Z,6.47
2022-10-18T14:31:16.842Z,6.10
2022-10-18T14:34:18.884Z,6.00
2022-10-18T14:37:27.483Z,6.57
2022-10-18T14:40:40.427Z,6.78
2022-10-18T14:43:43.332Z,6.95
2022-10-18T14:46:58.484Z,8.18
2022-10-18T14:50:01.053Z,7.43
2022-10-18T14:53:09.243Z,7.90
2022-10-18T14:56:30.360Z,6.32
2022-10-18T14:59:51.721Z,7.07
2022-10-18T15:02:53.566Z,7.10
2022-10-18T15:05:59.543Z,7.47
2022-10-18T15:09:04.381Z,6.68
2022-10-18T15:12:07.184Z,7.22
2022-10-18T15:15:20.521Z,7.43
2022-10-18T15:18:28.015Z,6.80
2022-10-18T15:21:30.124Z,6.88
2022-10-18T15:24:37.585Z,6.72
2022-10-18T15:27:40.200Z,6.97
2022-10-18T15:30:43.205Z,7.30
2022-10-18T15:33:45.241Z,7.03
2022-10-18T15:36:47.938Z,6.88
2022-10-18T15:40:16.547Z,6.45
2022-10-18T15:43:24.196Z,6.85
2022-10-18T15:46:32.232Z,6.57
2022-10-18T15:49:48.818Z,6.93
2022-10-18T15:56:02.517Z,6.65
2022-10-18T15:59:20.849Z,6.25
2022-10-18T16:02:22.638Z,6.30
2022-10-18T16:05:25.774Z,5.85
2022-10-18T16:08:30.825Z,6.97
2022-10-18T16:11:32.663Z,7.43
2022-10-18T16:14:35.158Z,6.63
2022-10-18T16:17:37.048Z,6.70
2022-10-18T16:20:38.817Z,7.30
2022-10-18T16:23:40.535Z,7.32
2022-10-18T16:26:42.483Z,6.63
2022-10-18T16:29:44.226Z,6.90
2022-10-18T16:32:46.580Z,7.03
2022-10-18T16:35:48.552Z,7.18
2022-10-18T16:38:51.151Z,7.45
2022-10-18T16:41:52.987Z,7.38
2022-10-18T16:44:55.076Z,7.03
2022-10-18T16:47:56.802Z,6.03
2022-10-18T16:50:59.125Z,6.15
2022-10-18T16:54:00.825Z,6.55
2022-10-18T16:57:02.547Z,7.07
2022-10-18T17:00:04.916Z,6.63
2022-10-18T17:03:07.291Z,6.82
2022-10-18T17:06:24.046Z,7.55
2022-10-18T17:12:27.374Z,7.10
2022-10-18T17:15:32.839Z,8.70
2022-10-18T17:18:37.238Z,9.10
2022-10-18T17:21:38.947Z,9.98
2022-10-18T17:24:40.680Z,9.50
2022-10-18T17:27:42.547Z,11.32
2022-10-18T17:30:44.881Z,11.57
2022-10-18T17:33:46.627Z,11.15
2022-10-18T17:36:50.862Z,9.82
2022-10-18T17:39:52.692Z,8.60
2022-10-18T17:42:54.532Z,8.75
2022-10-18T17:45:56.893Z,9.18
2022-10-18T17:48:58.732Z,8.27
2022-10-18T17:52:06.013Z,8.65
2022-10-18T17:55:09.400Z,8.45
2022-10-18T17:58:11.100Z,9.45
2022-10-18T18:01:18.559Z,8.23
2022-10-18T18:04:20.283Z,8.98
2022-10-18T18:07:21.923Z,8.07
2022-10-18T18:10:23.744Z,7.93
2022-10-18T18:13:25.429Z,8.55
2022-10-18T18:16:29.569Z,7.82
2022-10-18T18:19:31.820Z,8.48
2022-10-18T18:22:36.037Z,7.30
2022-10-18T18:25:39.616Z,7.75
2022-10-18T18:28:41.659Z,8.73
2022-10-18T18:31:43.974Z,8.60
2022-10-18T18:34:45.765Z,8.13
2022-10-18T18:37:50.523Z,8.73
2022-10-18T18:41:16.385Z,8.93
2022-10-18T18:44:20.189Z,8.00
2022-10-18T18:47:23.550Z,8.93
2022-10-18T18:50:25.508Z,9.45
2022-10-18T18:53:29.495Z,9.40
2022-10-18T18:56:31.439Z,10.55
2022-10-18T18:59:33.455Z,11.02
2022-10-18T19:02:35.133Z,9.13
2022-10-18T19:05:37.115Z,8.60
2022-10-18T19:08:40.432Z,9.77
2022-10-18T19:11:42.298Z,9.75
2022-10-18T19:14:44.041Z,10.20
2022-10-18T19:17:45.757Z,9.70
2022-10-18T19:20:47.446Z,9.85
2022-10-18T19:23:50.288Z,9.27
2022-10-18T19:26:55.257Z,10.93
2022-10-18T19:29:57.000Z,10.48
2022-10-18T19:33:04.247Z,10.13
2022-10-18T19:36:06.395Z,7.78
2022-10-18T19:39:11.822Z,10.30
2022-10-18T19:42:18.583Z,9.57
2022-10-18T19:45:24.544Z,10.20
2022-10-18T19:48:26.299Z,9.38
2022-10-18T19:51:28.605Z,9.55
2022-10-18T19:54:30.553Z,8.57
2022-10-18T19:57:32.180Z,9.98
2022-10-18T20:00:33.886Z,9.43
2022-10-18T20:03:35.710Z,9.77
2022-10-18T20:06:39.023Z,9.02
2022-10-18T20:09:40.777Z,10.63
2022-10-18T20:12:42.503Z,10.57
2022-10-18T20:15:46.975Z,8.32
2022-10-18T20:18:49.054Z,10.07
2022-10-18T20:21:50.832Z,8.70
2022-10-18T20:24:52.710Z,8.40
2022-10-18T20:27:54.377Z,9.38
2022-10-18T20:31:06.978Z,10.13
2022-10-18T20:34:11.733Z,9.18
2022-10-18T20:37:13.413Z,9.43
2022-10-18T20:40:15.835Z,8.88
2022-10-18T20:43:18.049Z,9.32
2022-10-18T20:46:20.578Z,9.45
2022-10-18T20:49:22.330Z,10.55
2022-10-18T20:52:24.468Z,9.57
2022-10-18T20:55:28.613Z,9.43
2022-10-18T20:58:30.290Z,9.70
2022-10-18T21:01:33.702Z,9.30
2022-10-18T21:04:36.703Z,9.25
2022-10-18T21:07:40.544Z,8.93
2022-10-18T21:10:42.207Z,9.70
2022-10-18T21:13:43.947Z,9.65
2022-10-18T21:16:46.447Z,8.02
2022-10-18T21:19:48.234Z,9.40
2022-10-18T21:22:51.689Z,9.18
2022-10-18T21:25:53.503Z,9.02
2022-10-18T21:29:00.712Z,9.18
2022-10-18T21:32:02.802Z,9.10
2022-10-18T21:35:05.154Z,7.05
2022-10-18T21:38:06.851Z,2.25
2022-10-18T21:41:10.274Z,4.68
2022-10-18T21:44:12.259Z,5.03
2022-10-18T21:47:15.369Z,2.35
2022-10-18T21:50:17.164Z,4.15
2022-10-18T21:53:19.060Z,3.60
2022-10-18T21:56:34.789Z,4.28
2022-10-18T21:59:36.443Z,2.58
2022-10-18T22:02:38.267Z,3.78
2022-10-18T22:05:40.052Z,3.38
2022-10-18T22:08:43.590Z,4.45
2022-10-18T22:11:49.016Z,3.90
2022-10-18T22:14:50.736Z,2.83
2022-10-18T22:17:52.386Z,2.60
2022-10-18T22:21:08.495Z,3.92
2022-10-18T22:24:10.461Z,2.65
2022-10-18T22:27:12.140Z,4.30
2022-10-18T22:30:13.874Z,4.63
2022-10-18T22:33:15.558Z,3.15
2022-10-18T22:36:17.296Z,3.63
2022-10-18T22:39:19.258Z,2.25
2022-10-18T22:42:20.943Z,3.13
2022-10-18T22:45:22.718Z,3.45
2022-10-18T22:48:24.412Z,2.28
2022-10-18T22:51:26.617Z,4.45
2022-10-18T22:54:28.344Z,4.50
2022-10-18T22:57:30.173Z,3.10
2022-10-18T23:00:31.940Z,3.80
2022-10-18T23:03:34.506Z,2.55
2022-10-18T23:06:36.524Z,4.10
2022-10-18T23:09:38.298Z,4.32
2022-10-18T23:12:39.982Z,2.28
2022-10-18T23:15:41.786Z,3.92
2022-10-18T23:18:43.838Z,3.80
2022-10-18T23:21:45.591Z,1.95
2022-10-18T23:24:47.420Z,3.42
2022-10-18T23:27:49.122Z,3.00
2022-10-18T23:30:50.933Z,3.05
2022-10-18T23:33:55.211Z,2.55
2022-10-18T23:36:56.978Z,1.33
2022-10-18T23:39:59.490Z,3.55
2022-10-18T23:43:01.184Z,2.28
2022-10-18T23:46:03.300Z,1.58
2022-10-18T23:49:05.004Z,2.17
2022-10-18T23:52:06.847Z,1.50
2022-10-18T23:55:08.758Z,1.42
2022-10-18T23:58:10.603Z,0.32
